Time;durP1;ratioP1;P1;durP2;ratioP2;P2;SDS_P1;SDS_P2;PMS_P1;PMS_P2;Temp;Humidity;BMP_temperature;BMP_pressure;BME280_temperature;BME280_humidity;BME280_pressure;Samples;Min_cycle;Max_cycle;Signal;HPM_P1;HPM_P2
2022/07/11 00:01:56;;;;;;;14.33;7.20;;;;;;;9.99;100.00;102164.28;7385333;19;20399;-62
2022/07/11 00:04:25;;;;;;;8.00;2.53;;;;;;;9.95;100.00;102131.34;7391486;19;20945;-61
2022/07/11 00:06:55;;;;;;;7.17;3.17;;;;;;;9.89;100.00;102130.94;7385393;19;20388;-61
2022/07/11 00:09:25;;;;;;;8.57;2.30;;;;;;;9.84;100.00;102116.84;7394487;19;20388;-60
2022/07/11 00:11:57;;;;;;;10.90;5.10;;;;;;;9.78;100.00;102096.72;7372078;19;20389;-62
2022/07/11 00:14:27;;;;;;;6.33;2.53;;;;;;;9.78;100.00;102088.97;7399357;19;20399;-61
2022/07/11 00:16:57;;;;;;;6.43;2.40;;;;;;;9.76;100.00;102093.16;7386037;19;20387;-62
2022/07/11 00:19:26;;;;;;;5.50;2.30;;;;;;;9.71;100.00;102081.63;7404151;19;20462;-61
2022/07/11 00:21:56;;;;;;;8.77;2.33;;;;;;;9.70;100.00;102073.00;7392666;19;20387;-61
2022/07/11 00:24:26;;;;;;;5.93;2.43;;;;;;;9.70;100.00;102061.81;7398859;19;20403;-60
2022/07/11 00:26:58;;;;;;;12.07;6.10;;;;;;;9.80;100.00;102047.84;7393925;19;20488;-61
2022/07/11 00:29:28;;;;;;;10.33;3.20;;;;;;;9.77;100.00;102009.88;7399563;19;20377;-61
2022/07/11 00:31:58;;;;;;;11.93;5.10;;;;;;;9.78;100.00;101980.72;7390662;19;20410;-61
2022/07/11 00:34:28;;;;;;;8.90;3.37;;;;;;;9.77;100.00;101975.47;7398740;19;20387;-60
2022/07/11 00:36:57;;;;;;;8.63;3.53;;;;;;;9.77;100.00;101966.06;7390295;19;20459;-61
2022/07/11 00:39:27;;;;;;;8.53;3.30;;;;;;;9.85;100.00;101954.53;7399282;19;20393;-60
2022/07/11 00:42:00;;;;;;;9.03;2.17;;;;;;;9.77;100.00;101948.03;7392712;19;20404;-60
2022/07/11 00:44:30;;;;;;;5.87;2.97;;;;;;;9.75;100.00;101926.41;7397773;19;20484;-61
2022/07/11 00:46:59;;;;;;;7.33;2.60;;;;;;;9.69;100.00;101918.28;7391393;19;20484;-60
2022/07/11 00:49:29;;;;;;;9.70;2.23;;;;;;;9.62;100.00;101905.78;7399103;19;20400;-61
2022/07/11 00:51:58;;;;;;;21.40;5.90;;;;;;;9.61;100.00;101870.50;7390762;19;20382;-61
2022/07/11 00:54:29;;;;;;;9.50;2.60;;;;;;;9.63;100.00;101866.38;7398012;19;20384;-60
2022/07/11 00:57:02;;;;;;;8.13;2.83;;;;;;;9.66;100.00;101853.66;7393545;19;20419;-61
2022/07/11 00:59:32;;;;;;;6.63;2.17;;;;;;;9.70;100.00;101853.06;7398620;19;20389;-61
2022/07/11 01:02:04;;;;;;;6.23;2.87;;;;;;;9.66;100.00;101853.66;7376730;19;20411;-61
2022/07/11 01:04:34;;;;;;;10.57;2.03;;;;;;;9.64;100.00;101850.97;7397589;19;20913;-61
2022/07/11 01:07:04;;;;;;;7.63;2.37;;;;;;;9.59;100.00;101853.28;7366220;19;20442;-60
2022/07/11 01:09:34;;;;;;;4.57;2.30;;;;;;;9.54;100.00;101851.22;7398941;19;20479;-61
2022/07/11 01:12:08;;;;;;;10.37;2.50;;;;;;;9.48;100.00;101849.13;7389654;19;20416;-61
2022/07/11 01:14:38;;;;;;;11.10;3.73;;;;;;;9.40;100.00;101850.31;7397603;19;20455;-60
2022/07/11 01:17:08;;;;;;;9.10;3.27;;;;;;;9.39;100.00;101838.25;7389687;19;20422;-61
2022/07/11 01:19:37;;;;;;;13.17;3.07;;;;;;;9.34;100.00;101831.91;7398104;19;20729;-59
2022/07/11 01:22:07;;;;;;;9.20;3.20;;;;;;;9.29;100.00;101832.47;7379797;19;20760;-60
2022/07/11 01:24:40;;;;;;;63.47;28.53;;;;;;;9.35;100.00;101828.53;7395313;19;20400;-60
2022/07/11 01:27:10;;;;;;;42.43;19.70;;;;;;;9.34;100.00;101809.63;7383129;19;20410;-60
2022/07/11 01:29:41;;;;;;;26.37;9.50;;;;;;;9.24;100.00;101813.28;7396636;19;20447;-60
2022/07/11 01:32:10;;;;;;;21.10;8.83;;;;;;;9.16;100.00;101806.75;7387922;19;20751;-60
2022/07/11 01:34:40;;;;;;;25.20;8.20;;;;;;;9.23;100.00;101802.88;7388203;19;20414;-59
2022/07/11 01:37:09;;;;;;;14.53;6.10;;;;;;;9.21;100.00;101799.31;7388777;19;20953;-62
2022/07/11 01:39:41;;;;;;;22.80;8.03;;;;;;;9.27;100.00;101792.88;7397657;19;20394;-60
2022/07/11 01:42:11;;;;;;;13.17;3.37;;;;;;;9.29;100.00;101791.28;7389353;19;20412;-60
2022/07/11 01:44:41;;;;;;;15.97;8.63;;;;;;;9.36;100.00;101787.41;7396047;19;20478;-60
2022/07/11 01:47:10;;;;;;;17.77;5.50;;;;;;;9.40;100.00;101799.72;7390658;19;20750;-60
2022/07/11 01:49:40;;;;;;;6.93;2.50;;;;;;;9.48;100.00;101794.16;7397360;19;20740;-60
2022/07/11 01:52:10;;;;;;;7.77;2.90;;;;;;;9.34;100.00;101793.25;7390634;19;20985;-60
2022/07/11 01:54:43;;;;;;;12.23;4.13;;;;;;;9.23;100.00;101800.31;7397074;19;20503;-60
2022/07/11 01:57:12;;;;;;;6.10;2.30;;;;;;;9.17;100.00;101799.13;7390711;19;20415;-60
2022/07/11 01:59:42;;;;;;;7.50;2.73;;;;;;;9.19;100.00;101799.22;7397191;19;20391;-60
2022/07/11 02:02:11;;;;;;;11.07;2.70;;;;;;;9.22;100.00;101798.53;7385684;19;20425;-60
2022/07/11 02:04:41;;;;;;;6.40;2.37;;;;;;;9.27;100.00;101802.28;7399199;19;20425;-60
2022/07/11 02:07:11;;;;;;;7.47;2.20;;;;;;;9.23;100.00;101805.47;7389665;19;20407;-60
2022/07/11 02:09:43;;;;;;;5.87;2.20;;;;;;;9.32;100.00;101801.78;7396532;19;20386;-62
2022/07/11 02:12:12;;;;;;;3.87;2.20;;;;;;;9.12;100.00;101807.34;7382693;19;20764;-62
2022/07/11 02:14:42;;;;;;;4.60;2.07;;;;;;;9.10;100.00;101806.34;7395689;19;20395;-61
2022/07/11 02:17:13;;;;;;;6.43;2.40;;;;;;;9.15;100.00;101807.53;7377540;19;20431;-62
2022/07/11 02:19:43;;;;;;;9.53;3.20;;;;;;;9.41;100.00;101805.72;7401463;19;20399;-61
2022/07/11 02:22:15;;;;;;;6.30;2.60;;;;;;;9.64;100.00;101796.88;7386413;19;20415;-62
2022/07/11 02:24:47;;;;;;;8.23;2.40;;;;;;;9.49;100.00;101799.38;7395270;19;20383;-62
2022/07/11 02:27:16;;;;;;;10.67;3.00;;;;;;;9.49;100.00;101798.50;7387908;19;20762;-62
2022/07/11 02:29:46;;;;;;;7.40;2.87;;;;;;;9.80;100.00;101797.84;7395665;19;20388;-62
2022/07/11 02:32:15;;;;;;;6.97;2.57;;;;;;;9.77;100.00;101801.09;7387573;19;20412;-62
2022/07/11 02:34:45;;;;;;;10.93;2.63;;;;;;;9.79;100.00;101802.09;7393574;19;20406;-59
2022/07/11 02:37:14;;;;;;;6.30;2.57;;;;;;;9.88;100.00;101806.03;7388193;19;20415;-62
2022/07/11 02:39:47;;;;;;;6.43;2.53;;;;;;;9.91;100.00;101806.22;7395749;19;20384;-62
2022/07/11 02:42:16;;;;;;;6.60;3.10;;;;;;;10.35;100.00;101804.53;7386298;19;20949;-62
2022/07/11 02:44:46;;;;;;;7.20;2.30;;;;;;;10.43;100.00;101805.03;7394574;19;20395;-62
2022/07/11 02:47:16;;;;;;;6.53;1.97;;;;;;;10.00;100.00;101809.34;7376780;19;20945;-60
2022/07/11 02:49:47;;;;;;;9.73;4.40;;;;;;;9.97;100.00;101816.91;7395565;19;20383;-62
2022/07/11 02:52:17;;;;;;;7.17;3.53;;;;;;;9.74;100.00;101826.69;7386686;19;21011;-63
2022/07/11 02:54:49;;;;;;;5.17;2.30;;;;;;;9.73;100.00;101830.06;7394408;19;20401;-60
2022/07/11 02:57:18;;;;;;;6.77;2.17;;;;;;;9.39;100.00;101830.50;7387138;19;20423;-62
2022/07/11 02:59:48;;;;;;;9.10;3.70;;;;;;;9.25;100.00;101834.78;7395031;19;20388;-60
2022/07/11 03:02:17;;;;;;;7.70;2.30;;;;;;;9.18;100.00;101842.09;7385705;19;20422;-60
2022/07/11 03:04:47;;;;;;;10.60;4.63;;;;;;;9.62;100.00;101836.22;7394040;19;20415;-59
2022/07/11 03:07:16;;;;;;;10.83;5.40;;;;;;;10.40;100.00;101832.41;7385254;19;20418;-60
2022/07/11 03:09:48;;;;;;;8.73;2.80;;;;;;;10.60;100.00;101830.13;7395423;19;20394;-60
2022/07/11 03:12:18;;;;;;;10.50;3.57;;;;;;;10.49;100.00;101842.41;7390213;19;20415;-60
2022/07/11 03:14:48;;;;;;;6.40;2.50;;;;;;;10.42;100.00;101844.50;7393895;19;20393;-60
2022/07/11 03:17:18;;;;;;;9.40;3.43;;;;;;;9.85;100.00;101854.00;7384094;19;20787;-60
2022/07/11 03:19:47;;;;;;;9.20;3.03;;;;;;;9.44;100.00;101857.47;7394512;19;20470;-60
2022/07/11 03:22:17;;;;;;;9.30;3.60;;;;;;;9.23;100.00;101863.00;7383165;19;20433;-61
2022/07/11 03:24:50;;;;;;;5.10;2.20;;;;;;;9.17;100.00;101860.00;7393387;19;20416;-61
2022/07/11 03:27:20;;;;;;;6.87;2.37;;;;;;;9.30;100.00;101859.16;7381714;19;20427;-62
2022/07/11 03:29:50;;;;;;;5.70;2.20;;;;;;;9.24;100.00;101849.34;7394095;19;20387;-62
2022/07/11 03:32:20;;;;;;;10.90;2.60;;;;;;;9.52;100.00;101856.25;7380470;19;20414;-59
2022/07/11 03:37:39;;;;;;;5.00;2.53;;;;;;;10.24;100.00;101850.31;7386220;19;20422;-62
2022/07/11 03:40:12;;;;;;;4.40;2.37;;;;;;;10.23;100.00;101853.69;7393554;19;20391;-62
2022/07/11 03:42:42;;;;;;;3.47;1.90;;;;;;;9.97;100.00;101864.22;7382495;19;20411;-62
2022/07/11 03:45:12;;;;;;;8.53;3.33;;;;;;;9.55;100.00;101868.44;7391937;19;20944;-62
2022/07/11 03:47:41;;;;;;;7.80;2.47;;;;;;;9.22;100.00;101871.50;7374675;19;20480;-59
2022/07/11 03:50:11;;;;;;;9.33;3.80;;;;;;;9.13;100.00;101855.47;7393488;19;20392;-62
2022/07/11 03:52:40;;;;;;;14.47;2.47;;;;;;;9.13;100.00;101868.34;7375023;19;20441;-60
2022/07/11 03:55:13;;;;;;;9.67;3.10;;;;;;;9.17;100.00;101858.34;7392049;19;20419;-62
2022/07/11 03:57:42;;;;;;;6.53;2.57;;;;;;;9.20;100.00;101849.94;7365704;19;20772;-59
2022/07/11 04:00:13;;;;;;;7.07;3.00;;;;;;;9.14;100.00;101842.69;7393159;19;20398;-61
2022/07/11 04:02:43;;;;;;;7.60;3.27;;;;;;;9.07;100.00;101839.63;7383391;19;20417;-57
2022/07/11 04:05:13;;;;;;;11.13;3.53;;;;;;;9.07;100.00;101840.50;7395705;19;20438;-60
2022/07/11 04:07:42;;;;;;;10.10;3.00;;;;;;;9.13;100.00;101845.19;7377480;19;20429;-59
2022/07/11 04:10:15;;;;;;;5.60;2.87;;;;;;;9.21;100.00;101843.97;7393035;19;20380;-59
2022/07/11 04:12:45;;;;;;;6.63;2.80;;;;;;;9.21;100.00;101841.41;7379615;19;20433;-60
2022/07/11 04:15:15;;;;;;;8.00;2.37;;;;;;;9.22;100.00;101843.19;7391425;19;20407;-58
2022/07/11 04:17:44;;;;;;;6.20;3.20;;;;;;;9.22;100.00;101847.47;7370762;19;20419;-60
2022/07/11 04:20:14;;;;;;;7.80;3.83;;;;;;;9.31;100.00;101843.78;7392722;19;20976;-59
2022/07/11 04:22:43;;;;;;;7.30;2.87;;;;;;;9.32;100.00;101843.00;7385092;19;20411;-60
2022/07/11 04:25:15;;;;;;;8.40;3.20;;;;;;;9.37;100.00;101844.97;7391261;19;20938;-60
2022/07/11 04:27:45;;;;;;;10.33;3.20;;;;;;;9.47;100.00;101843.91;7382547;19;21024;-59
2022/07/11 04:30:14;;;;;;;5.53;3.60;;;;;;;9.51;100.00;101846.75;7392333;19;20936;-60
2022/07/11 04:32:44;;;;;;;11.40;4.77;;;;;;;9.55;100.00;101853.84;7384005;19;20950;-57
2022/07/11 04:35:13;;;;;;;8.10;3.17;;;;;;;9.63;100.00;101843.19;7390569;19;20426;-60
2022/07/11 04:37:43;;;;;;;11.07;2.40;;;;;;;9.69;100.00;101854.75;7382125;19;20426;-58
2022/07/11 04:40:17;;;;;;;4.60;2.60;;;;;;;9.80;100.00;101850.25;7392150;19;20431;-60
2022/07/11 04:42:47;;;;;;;5.73;2.40;;;;;;;9.92;100.00;101851.81;7368790;19;20929;-60
2022/07/11 04:45:16;;;;;;;16.10;3.00;;;;;;;10.02;100.00;101851.59;7390520;19;20414;-60
2022/07/11 04:47:46;;;;;;;12.73;3.03;;;;;;;10.07;100.00;101852.78;7382561;19;20510;-59
2022/07/11 04:50:16;;;;;;;7.93;2.37;;;;;;;10.20;100.00;101862.13;7391945;19;20384;-60
2022/07/11 04:52:45;;;;;;;7.37;2.47;;;;;;;10.29;100.00;101864.38;7367740;19;20419;-60
2022/07/11 04:55:17;;;;;;;14.80;2.97;;;;;;;10.32;100.00;101868.84;7390260;19;20428;-60
2022/07/11 04:57:47;;;;;;;6.83;2.40;;;;;;;10.31;100.00;101872.22;7379381;19;20479;-59
2022/07/11 05:00:17;;;;;;;9.37;3.03;;;;;;;10.44;100.00;101873.88;7398772;19;20392;-59
2022/07/11 05:02:46;;;;;;;7.50;2.80;;;;;;;10.51;100.00;101876.06;7385835;19;20400;-59
2022/07/11 05:05:16;;;;;;;11.47;3.40;;;;;;;10.67;100.00;101878.72;7397165;19;20441;-60
2022/07/11 05:07:46;;;;;;;7.57;3.17;;;;;;;10.66;100.00;101883.78;7382272;19;21011;-60
2022/07/11 05:10:18;;;;;;;7.73;2.10;;;;;;;10.72;100.00;101899.66;7398537;19;20416;-61
2022/07/11 05:12:48;;;;;;;4.70;2.43;;;;;;;10.79;100.00;101894.06;7389469;19;20409;-60
2022/07/11 05:15:18;;;;;;;11.93;3.33;;;;;;;10.94;100.00;101899.22;7396542;19;20402;-60
2022/07/11 05:17:47;;;;;;;9.73;2.60;;;;;;;11.03;100.00;101900.56;7375631;19;20433;-60
2022/07/11 05:20:17;;;;;;;8.20;2.60;;;;;;;11.06;100.00;101905.91;7398307;19;20390;-61
2022/07/11 05:22:46;;;;;;;32.93;11.90;;;;;;;11.19;100.00;101899.78;7385117;19;20762;-60
2022/07/11 05:25:18;;;;;;;16.20;6.43;;;;;;;11.31;100.00;101907.31;7396412;19;20432;-61
2022/07/11 05:27:48;;;;;;;12.20;5.37;;;;;;;11.35;100.00;101912.75;7387225;19;20425;-61
2022/07/11 05:30:18;;;;;;;43.17;16.70;;;;;;;11.52;100.00;101917.09;7398452;19;20405;-61
2022/07/11 05:32:47;;;;;;;8.33;2.87;;;;;;;11.50;100.00;101916.13;7390435;19;20416;-60
2022/07/11 05:35:17;;;;;;;7.57;2.60;;;;;;;11.58;100.00;101926.09;7395970;19;20408;-61
2022/07/11 05:37:46;;;;;;;6.27;2.33;;;;;;;11.66;100.00;101928.22;7383792;19;20426;-61
2022/07/11 05:40:18;;;;;;;9.53;2.97;;;;;;;11.70;100.00;101925.88;7397665;19;20922;-62
2022/07/11 05:42:48;;;;;;;10.53;2.63;;;;;;;11.83;100.00;101931.72;7389583;19;20421;-61
2022/07/11 05:45:18;;;;;;;10.10;2.70;;;;;;;11.95;100.00;101939.28;7395815;19;20427;-61
2022/07/11 05:47:47;;;;;;;9.03;3.73;;;;;;;12.07;100.00;101952.94;7387862;19;20442;-61
2022/07/11 05:50:17;;;;;;;14.30;2.37;;;;;;;12.12;100.00;101945.41;7397420;19;20391;-60
2022/07/11 05:52:46;;;;;;;10.97;2.33;;;;;;;12.20;100.00;101945.84;7389677;19;20415;-61
2022/07/11 05:55:19;;;;;;;9.73;2.30;;;;;;;12.24;100.00;101958.09;7395762;19;20413;-62
2022/07/11 05:57:48;;;;;;;7.47;2.10;;;;;;;12.32;100.00;101968.88;7389763;19;20433;-60
2022/07/11 06:00:18;;;;;;;6.63;1.70;;;;;;;12.34;100.00;101973.34;7396746;19;20748;-61
2022/07/11 06:02:47;;;;;;;8.30;2.07;;;;;;;12.45;100.00;101971.31;7390290;19;20938;-61
2022/07/11 06:05:17;;;;;;;9.77;2.40;;;;;;;12.49;100.00;101983.63;7395108;19;20419;-61
2022/07/11 06:10:32;;;;;;;24.70;7.83;;;;;;;13.30;100.00;101985.16;7397763;19;20390;-62
2022/07/11 06:13:01;;;;;;;19.80;8.27;;;;;;;13.39;100.00;101996.81;7383440;19;20939;-61
2022/07/11 06:15:31;;;;;;;22.17;10.87;;;;;;;13.45;100.00;102012.66;7394909;19;20403;-61
2022/07/11 06:18:00;;;;;;;51.87;25.77;;;;;;;13.64;100.00;102017.06;7386670;19;20427;-62
2022/07/11 06:20:31;;;;;;;70.23;34.93;;;;;;;13.75;100.00;102030.59;7396473;19;20853;-61
2022/07/11 06:23:00;;;;;;;76.73;38.63;;;;;;;13.85;100.00;102040.59;7388967;19;20425;-60
2022/07/11 06:25:33;;;;;;;25.90;10.53;;;;;;;13.75;100.00;102049.63;7394649;19;20514;-62
2022/07/11 06:28:03;;;;;;;13.90;6.40;;;;;;;13.71;100.00;102058.09;7388202;19;20460;-61
2022/07/11 06:30:33;;;;;;;7.50;3.00;;;;;;;13.71;100.00;102057.19;7396186;19;20401;-60
2022/07/11 06:33:03;;;;;;;9.63;3.63;;;;;;;13.91;100.00;102063.34;7386809;19;20421;-62
2022/07/11 06:35:34;;;;;;;10.00;3.23;;;;;;;14.00;100.00;102070.72;7393878;19;20422;-61
2022/07/11 06:38:03;;;;;;;7.70;2.60;;;;;;;14.07;100.00;102075.38;7387044;19;20426;-61
2022/07/11 06:40:36;;;;;;;7.93;2.10;;;;;;;14.30;100.00;102079.06;7395938;19;20399;-62
2022/07/11 06:43:06;;;;;;;5.67;2.33;;;;;;;14.27;100.00;102096.19;7382061;19;20416;-61
2022/07/11 06:45:36;;;;;;;4.27;1.80;;;;;;;14.39;100.00;102090.69;7394062;19;20502;-61
2022/07/11 06:48:06;;;;;;;7.33;1.47;;;;;;;14.40;100.00;102093.38;7384204;19;20457;-62
2022/07/11 06:50:36;;;;;;;4.90;1.33;;;;;;;14.39;100.00;102096.78;7395553;19;20427;-62
2022/07/11 06:53:06;;;;;;;6.20;2.50;;;;;;;14.44;100.00;102118.66;7386517;19;20425;-58
2022/07/11 06:55:39;;;;;;;4.77;1.50;;;;;;;14.47;100.00;102130.91;7393824;19;20415;-61
2022/07/11 06:58:08;;;;;;;5.37;1.80;;;;;;;14.44;100.00;102139.44;7381066;19;20423;-61
2022/07/11 07:00:53;;;;;;;4.00;1.63;;;;;;;14.42;100.00;102148.84;7395207;19;20388;-61
2022/07/11 07:03:23;;;;;;;6.70;1.20;;;;;;;14.47;100.00;102155.97;7370763;19;20418;-61
2022/07/11 07:05:55;;;;;;;6.77;1.50;;;;;;;14.44;100.00;102160.22;7393405;19;20422;-61
2022/07/11 07:08:26;;;;;;;3.67;1.30;;;;;;;14.56;100.00;102153.84;7384677;19;20973;-61
2022/07/11 07:11:00;;;;;;;6.00;1.70;;;;;;;14.61;100.00;102154.91;7395359;19;20375;-62
2022/07/11 07:13:36;;;;;;;12.30;1.13;;;;;;;14.67;100.00;102164.72;7386465;19;20505;-61
2022/07/11 07:16:07;;;;;;;5.30;1.50;;;;;;;14.66;100.00;102162.94;7396202;19;20427;-61
2022/07/11 07:18:40;;;;;;;3.27;1.63;;;;;;;14.66;100.00;102168.16;7385952;19;20939;-62
2022/07/11 07:21:11;;;;;;;3.87;1.03;;;;;;;14.65;100.00;102181.91;7394444;19;20907;-60
2022/07/11 07:23:40;;;;;;;6.10;1.43;;;;;;;14.64;100.00;102175.84;7374638;19;20807;-62
2022/07/11 07:26:13;;;;;;;5.47;1.43;;;;;;;14.61;100.00;102178.28;7392150;19;20414;-62
2022/07/11 07:28:42;;;;;;;6.73;2.00;;;;;;;14.83;100.00;102180.22;7385762;19;20435;-63
2022/07/11 07:31:13;;;;;;;6.83;1.70;;;;;;;15.00;100.00;102180.13;7394179;19;20420;-61
2022/07/11 07:33:46;;;;;;;5.00;1.40;;;;;;;15.16;100.00;102192.13;7380870;19;20423;-62
2022/07/11 07:36:16;;;;;;;4.93;1.93;;;;;;;15.31;100.00;102191.03;7391457;19;20771;-62
2022/07/11 07:38:47;;;;;;;2.67;1.00;;;;;;;15.39;100.00;102207.88;7384142;19;20955;-61
2022/07/11 07:41:19;;;;;;;5.73;1.50;;;;;;;15.46;100.00;102224.63;7393169;19;20394;-61
2022/07/11 07:43:49;;;;;;;4.07;1.20;;;;;;;15.32;100.00;102244.81;7384760;19;20407;-62
2022/07/11 07:46:18;;;;;;;3.40;1.03;;;;;;;15.19;100.00;102252.06;7391524;19;20416;-61
2022/07/11 07:48:49;;;;;;;4.90;1.30;;;;;;;15.13;100.00;102249.19;7383729;19;20442;-60
2022/07/11 07:51:18;;;;;;;9.00;4.07;;;;;;;15.09;100.00;102247.25;7392087;19;20812;-60
2022/07/11 07:53:48;;;;;;;9.60;3.90;;;;;;;15.24;100.00;102242.75;7383670;19;20425;-61
2022/07/11 07:56:28;;;;;;;4.40;2.00;;;;;;;15.41;100.00;102245.25;7391237;19;20436;-62
2022/07/11 07:58:57;;;;;;;2.53;1.10;;;;;;;15.53;100.00;102242.28;7390357;19;20824;-61
2022/07/11 08:01:40;;;;;;;46.83;18.60;;;;;;;15.71;100.00;102250.06;7393207;19;20387;-61
2022/07/11 08:04:12;;;;;;;23.13;9.27;;;;;;;15.85;100.00;102252.38;7391279;19;20477;-62
2022/07/11 08:06:42;;;;;;;13.70;5.20;;;;;;;15.92;100.00;102259.66;7366662;19;20755;-63
2022/07/11 08:09:12;;;;;;;17.30;6.13;;;;;;;15.82;100.00;102278.25;7395203;19;20406;-62
2022/07/11 08:11:52;;;;;;;4.80;1.27;;;;;;;15.64;100.00;102261.00;7370668;19;20393;-62
2022/07/11 08:14:22;;;;;;;3.80;1.43;;;;;;;15.56;100.00;102249.34;7391302;19;20387;-61
2022/07/11 08:16:51;;;;;;;7.53;1.97;;;;;;;15.55;100.00;102244.97;7370941;19;20383;-61
2022/07/11 08:19:21;;;;;;;5.50;2.30;;;;;;;15.75;100.00;102241.53;7392177;19;20916;-62
2022/07/11 08:21:51;;;;;;;3.43;1.47;;;;;;;15.98;100.00;102269.44;7361958;19;20920;-62
2022/07/11 08:24:21;;;;;;;8.17;1.80;;;;;;;16.10;100.00;102290.78;7391282;19;20400;-62
2022/07/11 08:26:53;;;;;;;3.60;1.60;;;;;;;16.41;100.00;102299.91;7359433;19;20478;-61
2022/07/11 08:29:42;;;;;;;4.83;2.43;;;;;;;16.55;100.00;102303.09;7391590;19;20382;-62
2022/07/11 08:32:12;;;;;;;28.60;14.93;;;;;;;16.33;100.00;102320.44;7385271;19;21056;-62
2022/07/11 08:34:42;;;;;;;177.77;95.80;;;;;;;16.26;100.00;102326.19;7398486;19;20954;-62
2022/07/11 08:37:11;;;;;;;31.03;17.70;;;;;;;16.28;100.00;102329.75;7376409;19;20411;-61
2022/07/11 08:39:41;;;;;;;3.10;1.20;;;;;;;16.53;100.00;102333.41;7399738;19;20395;-62
2022/07/11 08:42:21;;;;;;;18.23;10.33;;;;;;;16.90;100.00;102348.78;7373291;19;20416;-60
2022/07/11 08:44:51;;;;;;;21.67;11.50;;;;;;;17.13;100.00;102387.16;7397631;19;20419;-62
2022/07/11 08:47:21;;;;;;;10.20;4.47;;;;;;;17.23;100.00;102409.28;7379456;19;21412;-62
2022/07/11 08:49:51;;;;;;;3.10;1.30;;;;;;;17.32;100.00;102420.94;7397554;19;20392;-61
2022/07/11 08:52:22;;;;;;;13.87;6.07;;;;;;;17.10;100.00;102430.47;7363770;19;20494;-62
2022/07/11 08:54:52;;;;;;;4.37;1.80;;;;;;;16.71;100.00;102429.69;7396519;19;20394;-62
2022/07/11 08:57:24;;;;;;;11.60;5.77;;;;;;;16.74;100.00;102436.75;7390480;19;20429;-61
2022/07/11 08:59:56;;;;;;;30.40;10.70;;;;;;;16.90;100.00;102447.81;7402997;19;20403;-62
2022/07/11 09:02:27;;;;;;;5.73;2.00;;;;;;;17.14;100.00;102448.91;7374169;19;20443;-61
2022/07/11 09:04:56;;;;;;;4.10;1.40;;;;;;;17.26;100.00;102460.66;7397460;19;20768;-61
2022/07/11 09:07:26;;;;;;;12.20;4.77;;;;;;;17.38;100.00;102479.44;7361502;19;20426;-60
2022/07/11 09:09:56;;;;;;;28.53;10.20;;;;;;;17.50;100.00;102520.81;7395851;19;20384;-61
2022/07/11 09:12:28;;;;;;;6.03;2.23;;;;;;;17.55;100.00;102554.91;7362114;19;20831;-62
2022/07/11 09:14:59;;;;;;;5.60;2.20;;;;;;;17.53;100.00;102561.75;7397455;19;20774;-62
2022/07/11 09:17:31;;;;;;;4.63;1.80;;;;;;;17.64;100.00;102563.09;7374700;19;20450;-62
2022/07/11 09:20:00;;;;;;;9.87;4.17;;;;;;;17.52;100.00;102554.78;7398262;19;20382;-61
2022/07/11 09:25:24;;;;;;;7.77;2.60;;;;;;;17.43;100.00;102554.41;7397031;19;20422;-61
2022/07/11 09:27:57;;;;;;;54.67;32.13;;;;;;;17.55;100.00;102554.91;7389056;19;20415;-62
2022/07/11 09:30:29;;;;;;;4.83;2.40;;;;;;;17.90;100.00;102573.72;7396065;19;20379;-61
2022/07/11 09:33:01;;;;;;;20.83;6.80;;;;;;;18.25;100.00;102583.81;7388642;19;20415;-61
2022/07/11 09:35:31;;;;;;;6.67;2.27;;;;;;;18.06;100.00;102592.66;7394588;19;20521;-62
2022/07/11 09:38:01;;;;;;;21.70;6.87;;;;;;;17.81;100.00;102596.84;7387366;19;20410;-61
2022/07/11 09:40:31;;;;;;;58.50;19.70;;;;;;;17.54;100.00;102607.94;7397534;19;20400;-61
2022/07/11 09:43:04;;;;;;;8.60;2.67;;;;;;;17.79;100.00;102594.16;7389249;19;20429;-62
2022/07/11 09:45:34;;;;;;;4.97;1.57;;;;;;;18.17;100.00;102593.06;7394656;19;20435;-62
2022/07/11 09:48:10;;;;;;;4.53;2.17;;;;;;;18.01;100.00;102587.22;7387299;19;20407;-62
2022/07/11 09:50:40;;;;;;;4.50;1.37;;;;;;;17.96;100.00;102591.38;7392543;19;20395;-62
2022/07/11 09:53:12;;;;;;;11.83;2.80;;;;;;;18.26;100.00;102589.94;7387788;19;20422;-62
2022/07/11 09:55:44;;;;;;;4.70;1.00;;;;;;;18.39;100.00;102575.59;7393931;19;20419;-61
2022/07/11 09:58:24;;;;;;;3.33;1.13;;;;;;;18.59;100.00;102552.84;7388505;19;20441;-62
2022/07/11 10:00:54;;;;;;;4.30;1.77;;;;;;;18.71;100.00;102532.38;7395273;19;21240;-62
2022/07/11 10:03:25;;;;;;;5.67;1.93;;;;;;;18.60;100.00;102497.13;7387118;19;20421;-61
2022/07/11 10:06:15;;;;;;;5.47;1.50;;;;;;;18.53;100.00;102503.88;7392133;19;20429;-61
2022/07/11 10:08:44;;;;;;;2.30;0.70;;;;;;;18.36;100.00;102511.09;7386237;19;20419;-61
2022/07/11 10:11:14;;;;;;;3.90;1.63;;;;;;;18.59;100.00;102480.56;7392798;19;20398;-62
2022/07/11 10:13:47;;;;;;;6.07;1.17;;;;;;;18.71;100.00;102464.41;7387689;19;20434;-61
2022/07/11 10:16:26;;;;;;;5.20;1.60;;;;;;;18.44;100.00;102477.38;7392698;19;20430;-61
2022/07/11 10:19:08;;;;;;;5.70;1.93;;;;;;;18.02;100.00;102457.53;7370461;19;20498;-61
2022/07/11 10:21:44;;;;;;;4.13;1.10;;;;;;;18.10;100.00;102432.63;7395498;19;20395;-62
2022/07/11 10:24:32;;;;;;;5.10;1.23;;;;;;;18.67;100.00;102439.00;7393674;19;20425;-61
2022/07/11 10:27:05;;;;;;;3.70;1.40;;;;;;;18.85;100.00;102416.94;7381583;19;20412;-61
2022/07/11 10:29:42;;;;;;;4.03;1.73;;;;;;;19.00;100.00;102433.16;7394888;19;20737;-62
2022/07/11 10:32:13;;;;;;;3.03;1.03;;;;;;;18.98;100.00;102407.78;7384982;19;20419;-60
2022/07/11 10:34:46;;;;;;;5.33;2.10;;;;;;;19.07;100.00;102418.56;7393172;19;20399;-62
2022/07/11 10:37:16;;;;;;;4.73;1.27;;;;;;;18.95;100.00;102431.22;7386682;19;20436;-62
2022/07/11 10:40:00;;;;;;;2.03;0.80;;;;;;;19.04;100.00;102418.50;7394262;19;20395;-62
2022/07/11 10:42:41;;;;;;;3.50;1.17;;;;;;;19.44;100.00;102363.94;7386437;19;21013;-61
2022/07/11 10:45:14;;;;;;;4.00;0.80;;;;;;;19.72;100.00;102197.19;7393041;19;20415;-62
2022/07/11 10:47:45;;;;;;;4.43;1.30;;;;;;;19.89;100.00;101961.94;7387069;19;20411;-61
2022/07/11 10:50:37;;;;;;;3.30;0.80;;;;;;;19.97;100.00;101886.19;7392171;19;20412;-61
2022/07/11 10:53:10;;;;;;;54.27;27.47;;;;;;;19.64;100.00;101840.97;7381270;19;20808;-61
2022/07/11 10:55:50;;;;;;;6.33;1.70;;;;;;;19.04;100.00;101819.59;7393880;19;20835;-62
2022/07/11 10:58:23;;;;;;;4.73;1.93;;;;;;;19.36;100.00;101847.34;7384101;19;20402;-62
2022/07/11 11:01:10;;;;;;;9.97;3.43;;;;;;;19.81;100.00;101858.78;7398222;19;20401;-62
2022/07/11 11:03:40;;;;;;;3.17;1.37;;;;;;;19.56;100.00;101784.97;7386326;19;20419;-63
2022/07/11 11:06:10;;;;;;;2.03;0.80;;;;;;;19.40;100.00;101726.22;7392614;19;20417;-61
2022/07/11 11:08:43;;;;;;;2.83;0.77;;;;;;;19.60;100.00;101720.47;7387563;19;20447;-62
2022/07/11 11:11:41;;;;;;;3.90;1.70;;;;;;;19.60;100.00;101715.25;7392848;19;20410;-63
2022/07/11 11:14:30;;;;;;;3.93;0.77;;;;;;;19.49;100.00;101687.13;7393923;19;20423;-62
2022/07/11 11:17:38;;;;;;;7.23;2.20;;;;;;;19.30;100.00;101705.06;7385074;19;20953;-62
2022/07/11 11:20:33;;;;;;;5.43;2.87;;;;;;;19.17;100.00;101713.50;7392802;19;20494;-63
2022/07/11 11:23:13;;;;;;;8.50;3.57;;;;;;;19.47;100.00;101732.47;7385925;19;20933;-63
2022/07/11 11:25:42;;;;;;;7.50;1.83;;;;;;;19.60;100.00;101730.94;7394461;19;20427;-61
2022/07/11 11:28:12;;;;;;;3.10;1.13;;;;;;;19.63;100.00;101744.13;7388340;19;20447;-62
2022/07/11 11:30:55;;;;;;;3.17;1.10;;;;;;;20.00;100.00;101755.28;7393345;19;20391;-63
2022/07/11 11:33:24;;;;;;;3.20;1.20;;;;;;;20.26;100.00;101712.09;7383093;19;20941;-63
2022/07/11 11:36:04;;;;;;;3.57;1.00;;;;;;;20.15;100.00;101670.00;7391857;19;20430;-62
2022/07/11 11:38:36;;;;;;;9.63;2.90;;;;;;;19.91;100.00;101676.56;7387099;19;20421;-62
2022/07/11 11:41:06;;;;;;;10.87;5.67;;;;;;;19.69;100.00;101686.66;7393615;19;20493;-60
2022/07/11 11:43:37;;;;;;;5.07;2.40;;;;;;;19.66;100.00;101702.28;7384072;19;21060;-62
2022/07/11 11:46:06;;;;;;;12.80;7.37;;;;;;;19.87;100.00;101721.84;7391471;19;20945;-62